Stella W. — WDG5429 — position and weather

sailwx.info

Track history (hours):
 
Tides and Currents Weather Stations Pressure Air Temp Water Temp Dewpoint Dewpoint Depression Visibility Wind Speed Wind Dir Waves Ship Positions

Stella W.

Owner: T & M Boat Rentals, Berwick, LA. More information available from US FCC via Universal Licensing System and Coast Guard Vessel Documentation Center.

Last reported at 2017-Sep-21 20:45 UTC. Time now 2017-Oct-20 17:47 UTC.
Position N 29°21' W 090°44'.
Warning: this ship's position is 28 days out of date.

Length 16 m; draft 5.7 m.

Type: Towing. MMSI: 367546570.

Date/timePositionNaut miles runAvg speedWind from/ knotsBaromVisibWave heightAir tempDewpointWater temp
2017-Sep-21 20:45N 29°21' W 090°44'0 1.2
2017-Sep-21 20:30N 29°22' W 090°44'1 0.0
2017-Sep-21 03:28N 29°21' W 090°44'1 1.4
2017-Sep-21 02:48N 29°22' W 090°44'1 4.0
2017-Sep-21 02:29N 29°23' W 090°44'1 2.6
2017-Sep-21 02:00N 29°24' W 090°44'2 4.7
2017-Sep-21 01:30N 29°27' W 090°43'2 4.6
2017-Sep-21 01:00N 29°29' W 090°43'2 4.3
2017-Sep-21 00:30N 29°31' W 090°43'2 4.1
2017-Sep-21 00:00N 29°33' W 090°42'1 2.8
2017-Sep-20 23:30N 29°34' W 090°43'1 2.4
2017-Sep-20 23:00N 29°34' W 090°44'0 0.0
2017-Sep-20 22:30N 29°34' W 090°44'0 0.0
2017-Sep-20 22:00N 29°34' W 090°44'0 0.0
2017-Sep-20 21:30N 29°34' W 090°44'0 0.0
2017-Sep-20 21:00N 29°34' W 090°44'0 0.0
2017-Sep-20 20:30N 29°34' W 090°44'0 0.0
2017-Sep-20 20:00N 29°34' W 090°44'0 0.0
2017-Sep-20 19:30N 29°34' W 090°44'0 0.0
2017-Sep-20 19:00N 29°34' W 090°44'0 0.0
2017-Sep-20 18:30N 29°34' W 090°44'1 2.9
2017-Sep-20 18:00N 29°33' W 090°45'2 4.0
2017-Sep-20 17:30N 29°32' W 090°48'2 3.9
2017-Sep-20 17:00N 29°32' W 090°50'1 2.7
2017-Sep-20 16:30N 29°32' W 090°51'3 4.4
2017-Sep-20 15:54N 29°33' W 090°54'  
Track history (hours):
 
Tides and Currents Weather Stations Pressure Air Temp Water Temp Dewpoint Dewpoint Depression Visibility Wind Speed Wind Dir Waves Ship Positions

Stella W.

Owner: T & M Boat Rentals, Berwick, LA. More information available from US FCC via Universal Licensing System and Coast Guard Vessel Documentation Center.

Last reported at 2017-Sep-21 20:45 UTC. Time now 2017-Oct-20 17:47 UTC.
Position N 29°21' W 090°44'.
Warning: this ship's position is 28 days out of date.

Length 16 m; draft 5.7 m.

Type: Towing. MMSI: 367546570.

Date/timePositionNaut miles runAvg speedWind from/ knotsBaromVisibWave heightAir tempDewpointWater temp
2017-Sep-21 20:45N 29°21' W 090°44'0 1.2
2017-Sep-21 20:30N 29°22' W 090°44'1 0.0
2017-Sep-21 03:28N 29°21' W 090°44'1 1.4
2017-Sep-21 02:48N 29°22' W 090°44'1 4.0
2017-Sep-21 02:29N 29°23' W 090°44'1 2.6
2017-Sep-21 02:00N 29°24' W 090°44'2 4.7
2017-Sep-21 01:30N 29°27' W 090°43'2 4.6
2017-Sep-21 01:00N 29°29' W 090°43'2 4.3
2017-Sep-21 00:30N 29°31' W 090°43'2 4.1
2017-Sep-21 00:00N 29°33' W 090°42'1 2.8
2017-Sep-20 23:30N 29°34' W 090°43'1 2.4
2017-Sep-20 23:00N 29°34' W 090°44'0 0.0
2017-Sep-20 22:30N 29°34' W 090°44'0 0.0
2017-Sep-20 22:00N 29°34' W 090°44'0 0.0
2017-Sep-20 21:30N 29°34' W 090°44'0 0.0
2017-Sep-20 21:00N 29°34' W 090°44'0 0.0
2017-Sep-20 20:30N 29°34' W 090°44'0 0.0
2017-Sep-20 20:00N 29°34' W 090°44'0 0.0
2017-Sep-20 19:30N 29°34' W 090°44'0 0.0
2017-Sep-20 19:00N 29°34' W 090°44'0 0.0
2017-Sep-20 18:30N 29°34' W 090°44'1 2.9
2017-Sep-20 18:00N 29°33' W 090°45'2 4.0
2017-Sep-20 17:30N 29°32' W 090°48'2 3.9
2017-Sep-20 17:00N 29°32' W 090°50'1 2.7
2017-Sep-20 16:30N 29°32' W 090°51'3 4.4
2017-Sep-20 15:54N 29°33' W 090°54'  

Dump ship's entire track history